FW5879 Grammichele IT current weather conditions

sailwx.info

Air temperature 22.2° C
Dewpoint 17.1° C

Last reported at 2020-Oct-01 15:50 UTC.
Time now 2020-Oct-01 16:19 UTC

Location: N 37°13' E 014°38'.
View on Google Maps.

See reports from other nearby stations

  
Tides and Currents Weather Stations Pressure Air Temp Water Temp Dewpoint Dewpoint Depression Visibility Wind Speed Wind Dir Waves Ship Positions
date/time (UTC)wind fromknots sea level pressurealtimeterstation pressurevisibilityair tempwater tempwave heightnotes
2020-Oct-01 15:50 22.2
2020-Oct-01 15:40 22.2
2020-Oct-01 15:31 180 0 gusting 2 22.2
2020-Oct-01 15:22 22.2
2020-Oct-01 15:15 153 3 gusting 3 22.8
2020-Oct-01 15:00 176 3 gusting 5 22.8
2020-Oct-01 14:50 141 5 gusting 7 22.8
2020-Oct-01 14:40 145 1 gusting 3 22.8
2020-Oct-01 14:31 180 2 gusting 5 22.8
2020-Oct-01 14:20 180 0 gusting 2 23.3
2020-Oct-01 14:10 174 3 gusting 6 23.3
2020-Oct-01 14:00 166 2 gusting 2 23.3
2020-Oct-01 13:50 171 3 gusting 6 23.9
2020-Oct-01 13:40 174 3 gusting 6 23.9
2020-Oct-01 13:30 146 5 gusting 7 23.9
2020-Oct-01 13:20 171 4 gusting 7 23.9
2020-Oct-01 13:10 139 4 gusting 6 23.9
2020-Oct-01 13:00 178 7 gusting 10 23.9
2020-Oct-01 12:50 158 6 gusting 7 23.9
2020-Oct-01 12:40 145 1 gusting 3 23.9
2020-Oct-01 12:30 173 4 gusting 8 23.3
2020-Oct-01 12:20 180 3 gusting 4 23.9
2020-Oct-01 12:10 176 3 gusting 3 23.9
2020-Oct-01 12:00 156 4 gusting 4 23.9
2020-Oct-01 11:50 135 0 gusting 4 23.9
2020-Oct-01 11:40 180 2 gusting 5 23.3
2020-Oct-01 11:30 162 5 gusting 6 23.3
2020-Oct-01 11:20 150 6 gusting 8 23.3
2020-Oct-01 11:10 180 2 gusting 6 23.3
2020-Oct-01 11:00 143 1 gusting 3 23.3
2020-Oct-01 10:50 154 7 gusting 10 23.3
2020-Oct-01 10:40 180 2 gusting 6 22.8
2020-Oct-01 10:30 133 1 gusting 3 22.2
2020-Oct-01 10:20 129 2 gusting 4 22.2
2020-Oct-01 10:10 160 2 gusting 4 22.2
2020-Oct-01 10:00 167 4 gusting 7 21.7
2020-Oct-01 09:50 127 5 gusting 7 22.2
2020-Oct-01 09:40 162 3 gusting 5 22.8
2020-Oct-01 09:30 175 2 gusting 7 22.2
2020-Oct-01 09:20 178 10 gusting 13 21.7
2020-Oct-01 09:10 113 0 gusting 2 21.7
2020-Oct-01 09:00 155 2 gusting 3 21.7
2020-Oct-01 08:50 162 6 gusting 8 21.1
2020-Oct-01 08:40 173 3 gusting 4 21.1
2020-Oct-01 08:30 21.1
2020-Oct-01 08:20 20.6
2020-Oct-01 08:10 20.0
2020-Oct-01 08:00 20.0
2020-Oct-01 07:50 19.4
2020-Oct-01 07:40 19.4
2020-Oct-01 07:30 19.4
2020-Oct-01 07:20 19.4
2020-Oct-01 07:10 19.4
2020-Oct-01 07:00 18.9
2020-Oct-01 06:50 18.9
2020-Oct-01 06:40 18.9
2020-Oct-01 06:30 18.9
2020-Oct-01 06:20 18.9
2020-Oct-01 06:10 18.9
2020-Oct-01 06:00 18.9
2020-Oct-01 05:50 18.3
2020-Oct-01 05:40 18.3
2020-Oct-01 05:30 18.3
2020-Oct-01 05:20 18.3
2020-Oct-01 05:10 18.3
2020-Oct-01 05:00 18.3
2020-Oct-01 04:50 18.3
2020-Oct-01 04:40 18.3
2020-Oct-01 04:30 18.3
2020-Oct-01 04:20 18.3
2020-Oct-01 04:10 18.3
2020-Oct-01 04:00 18.3
2020-Oct-01 03:50 18.3
2020-Oct-01 03:40 18.3
2020-Oct-01 03:30 18.3
2020-Oct-01 03:20 18.3
2020-Oct-01 03:10 18.3
2020-Oct-01 03:00 18.3
2020-Oct-01 02:50 17.8
2020-Oct-01 02:40 17.8
2020-Oct-01 02:30 17.8
2020-Oct-01 02:20 17.8
2020-Oct-01 02:10 315 49 gusting 49 17.8
2020-Oct-01 02:00 17.8
2020-Oct-01 01:50 17.8
2020-Oct-01 01:40 17.8
2020-Oct-01 01:30 18.3
2020-Oct-01 01:20 18.3
2020-Oct-01 01:10 18.3
2020-Oct-01 01:00 18.3
2020-Oct-01 00:50 18.3
2020-Oct-01 00:40 18.3
2020-Oct-01 00:30 18.3
2020-Oct-01 00:20 18.3
2020-Oct-01 00:10 18.3
2020-Oct-01 00:00 18.3
2020-Sep-30 23:50 18.3
2020-Sep-30 23:40 18.3
2020-Sep-30 23:30 18.3
2020-Sep-30 23:20 18.3
2020-Sep-30 23:10 18.3
2020-Sep-30 23:00 18.3
2020-Sep-30 22:50 18.3
2020-Sep-30 22:40 18.3
2020-Sep-30 22:30 18.3
2020-Sep-30 22:20 18.3
2020-Sep-30 22:10 18.3
2020-Sep-30 22:00 18.3
2020-Sep-30 21:50 18.3
2020-Sep-30 21:40 158 0 gusting 2 18.3
2020-Sep-30 21:30 18.3
2020-Sep-30 21:20 18.3
2020-Sep-30 21:10 113 0 gusting 2 18.3
2020-Sep-30 21:00 158 0 gusting 1 18.3
2020-Sep-30 20:50 18.3
2020-Sep-30 20:40 158 3 gusting 6 18.3
2020-Sep-30 20:30 113 0 gusting 0 18.3
2020-Sep-30 20:20 120 2 gusting 5 18.3
2020-Sep-30 20:10 133 0 gusting 1 18.3
2020-Sep-30 20:00 138 0 gusting 3 18.9
2020-Sep-30 19:50 18.9
2020-Sep-30 19:40 18.3
2020-Sep-30 19:30 18.3
2020-Sep-30 19:20 128 1 gusting 1 18.3
2020-Sep-30 19:10 180 18.3
2020-Sep-30 19:00 18.3
2020-Sep-30 18:50 180 18.3
2020-Sep-30 18:40 180 0 gusting 2 18.9
2020-Sep-30 18:31 158 18.9
2020-Sep-30 18:20 180 18.9
2020-Sep-30 18:10 158 0 gusting 2 18.9
2020-Sep-30 18:00 180 1 gusting 3 18.9
2020-Sep-30 17:50 148 3 gusting 3 18.9
2020-Sep-30 17:40 158 0 gusting 1 18.9
2020-Sep-30 17:31 158 0 gusting 2 18.9
2020-Sep-30 17:20 180 19.4
2020-Sep-30 17:10 180 1 gusting 3 19.4
2020-Sep-30 17:00 090 1 gusting 2 19.4
2020-Sep-30 16:50 158 1 gusting 3 19.4
2020-Sep-30 16:40 135 2 gusting 6 19.4
2020-Sep-30 16:31 133 2 gusting 4 20.0
2020-Sep-30 16:20 151 1 gusting 5 20.6
2020-Sep-30 16:10 111 3 gusting 5 20.6
2020-Sep-30 16:00 158 3 gusting 6 20.6
2020-Sep-30 15:51 128 4 gusting 5 21.1
2020-Sep-30 15:40 135 8 gusting 9 21.7
2020-Sep-30 15:31 122 6 gusting 7 21.7
2020-Sep-30 15:20 180 2 gusting 7 21.7
2020-Sep-30 15:10 135 1 gusting 6 22.2
2020-Sep-30 15:00 120 5 gusting 6 22.2
2020-Sep-30 14:50 133 6 gusting 6 22.8
2020-Sep-30 14:40 158 2 gusting 3 23.3
2020-Sep-30 14:31 109 4 gusting 8 23.3
2020-Sep-30 14:20 099 3 gusting 4 23.3
2020-Sep-30 14:10 150 3 gusting 6 23.9
2020-Sep-30 14:00 120 0 gusting 1 23.3
2020-Sep-30 13:50 068 23.9
2020-Sep-30 13:40 167 0 gusting 1 23.9
2020-Sep-30 13:30 132 0 gusting 4 23.9
2020-Sep-30 13:20 113 2 gusting 6 23.9
2020-Sep-30 13:10 139 4 gusting 6 23.9
2020-Sep-30 13:00 111 5 gusting 10 24.4
2020-Sep-30 12:50 113 1 gusting 3 24.4
2020-Sep-30 12:40 090 2 gusting 7 23.9
2020-Sep-30 12:30 045 23.9
2020-Sep-30 12:20 117 3 gusting 3 23.9
2020-Sep-30 12:10 135 0 gusting 5 23.9
2020-Sep-30 12:00 090 23.9
2020-Sep-30 11:50 077 0 gusting 4 23.9
2020-Sep-30 11:40 135 23.9
2020-Sep-30 11:30 059 4 gusting 5 23.9
2020-Sep-30 11:20 23.9
2020-Sep-30 11:10 052 2 gusting 5 23.9
2020-Sep-30 11:00 075 2 gusting 4 23.9
2020-Sep-30 10:50 071 3 gusting 8 23.9
2020-Sep-30 10:40 068 2 gusting 5 23.3
2020-Sep-30 10:30 081 3 gusting 3 23.3
2020-Sep-30 10:20 066 3 gusting 5 22.8
2020-Sep-30 10:10 131 1 gusting 3 22.2
2020-Sep-30 10:00 22.2
2020-Sep-30 09:50 21.7
2020-Sep-30 09:40 21.7
2020-Sep-30 09:30 090 2 gusting 4 21.7
2020-Sep-30 09:20 068 0 gusting 1 21.1
2020-Sep-30 09:10 090 0 gusting 3 21.1
2020-Sep-30 09:00 090 0 gusting 2 20.6
2020-Sep-30 08:50 20.6
2020-Sep-30 08:40 20.6
2020-Sep-30 08:30 20.6
2020-Sep-30 08:20 20.0
2020-Sep-30 08:10 18.9
2020-Sep-30 08:00 113 0 gusting 2 18.9
2020-Sep-30 07:50 18.9
2020-Sep-30 07:40 18.3
2020-Sep-30 07:30 135 18.3
2020-Sep-30 07:20 18.3
2020-Sep-30 07:10 18.3
2020-Sep-30 07:00 17.8
2020-Sep-30 06:50 17.8
2020-Sep-30 06:40 17.2
2020-Sep-30 06:30 113 17.2
2020-Sep-30 06:20 17.2
2020-Sep-30 06:10 16.7
2020-Sep-30 06:00 16.7
2020-Sep-30 05:50 16.7
2020-Sep-30 05:40 16.1
2020-Sep-30 05:30 16.1
2020-Sep-30 05:20 16.1
2020-Sep-30 05:10 15.6
2020-Sep-30 05:00 15.6
2020-Sep-30 04:50 15.6
2020-Sep-30 04:40 15.6
2020-Sep-30 04:30 15.6
2020-Sep-30 04:20 15.6
2020-Sep-30 04:10 15.6
2020-Sep-30 04:00 15.6
2020-Sep-30 03:50 16.1
2020-Sep-30 03:40 16.1
2020-Sep-30 03:30 16.1
2020-Sep-30 03:20 16.1
2020-Sep-30 03:10 16.1
2020-Sep-30 03:00 16.1
2020-Sep-30 02:50 16.1
2020-Sep-30 02:40 16.7
2020-Sep-30 02:30 16.7
2020-Sep-30 02:20 16.7
2020-Sep-30 02:10 16.7
2020-Sep-30 02:00 16.7
2020-Sep-30 01:50 17.2
2020-Sep-30 01:40 17.2
2020-Sep-30 01:30 17.2
2020-Sep-30 01:20 17.2
2020-Sep-30 01:10 17.2
2020-Sep-30 01:00 17.2
2020-Sep-30 00:50 17.2
2020-Sep-30 00:40 023 17.2
2020-Sep-30 00:30 17.8
2020-Sep-30 00:20 17.8
2020-Sep-30 00:10 17.8
2020-Sep-30 00:00 17.2
2020-Sep-29 23:50 17.2
2020-Sep-29 23:40 17.2
2020-Sep-29 23:30 17.8
2020-Sep-29 23:20 17.8
2020-Sep-29 23:10 17.8
2020-Sep-29 23:00 17.8
2020-Sep-29 22:50 17.2
2020-Sep-29 22:40 17.2
2020-Sep-29 22:30 16.7
2020-Sep-29 22:20 16.7
2020-Sep-29 22:10 16.1
2020-Sep-29 22:00 16.1
2020-Sep-29 21:50 16.1
2020-Sep-29 21:40 16.1
2020-Sep-29 21:30 16.1
2020-Sep-29 21:20 16.1
2020-Sep-29 21:10 16.1
2020-Sep-29 21:00 16.1
2020-Sep-29 20:50 16.1
2020-Sep-29 20:40 16.1
2020-Sep-29 20:30 16.1
2020-Sep-29 20:20 16.1
2020-Sep-29 20:10 16.1
2020-Sep-29 20:00 16.1
2020-Sep-29 19:50 180 16.1
2020-Sep-29 19:40 16.7
2020-Sep-29 19:30 180 0 gusting 1 16.7
2020-Sep-29 19:20 16.7
2020-Sep-29 19:10 16.7
2020-Sep-29 19:00 17.2
2020-Sep-29 18:50 17.2
2020-Sep-29 18:40 18.3
2020-Sep-29 18:31 18.9
2020-Sep-29 18:20 18.9
2020-Sep-29 18:10 18.9
2020-Sep-29 18:00 19.4
2020-Sep-29 17:50 19.4
2020-Sep-29 17:40 180 19.4
2020-Sep-29 17:31 19.4
2020-Sep-29 17:20 19.4
2020-Sep-29 17:10 20.0
2020-Sep-29 17:00 20.0
2020-Sep-29 16:50 113 1 gusting 1 20.6
2020-Sep-29 16:40 135 1 gusting 1 20.6
2020-Sep-29 16:31 136 1 gusting 2 21.1
2020-Sep-29 16:20 152 4 gusting 6 21.1
2020-Sep-29 16:10 132 6 gusting 7 21.1
2020-Sep-29 16:00 158 21.1